Winkler County Airport
KINK : now visible

Airfield :











YOU CAN JOIN US ON...

 
LOGIN :

Register | Disclaimer

   EN    FR    IT 

 









Legend :    VFR   Marginal VFR   IFR   Intensive IFR   Very Intensive IFR
Visi :
Ceiling :
>= 8 km
>= 3000ft
5 to 8 km
1000 to 3000 ft
1500m to 5 km
500 to 1000 ft
800 to 1500m
200 to 500 ft
< 800m
< 200 ft
Symbols :   Thunderstorms  Fog  Heavy snow  Heavy precipitations  Wind > 20 kt






- Airport Elevation : 2822 ft


KINK - Winkler County

CURRENT METAR :
  • 272237Z AUTO 36008KT 3SM BR SCT006 BKN012 OVC017 M01/M02 A3011 RMK AO2 I1001 T10061022

EXPIRED METARs :
  • 272229Z AUTO 36010KT 2 1/2SM BR FEW005 SCT008 OVC017 M01/M02 A3009 RMK AO2 I1001 T10061022
  • 272220Z AUTO 35012KT 4SM BR SCT008 OVC019 M01/M02 A3010 RMK AO2 I1000 T10061022
  • 272203Z AUTO 01008KT 6SM BR BKN008 BKN013 OVC017 M01/M02 A3010 RMK AO2 CIG 006V010 T10061022
  • 272153Z AUTO 36010KT 4SM BR FEW008 OVC016 M01/M02 A3009 RMK AO2 SLP198 I1000 T10061022
  • 272137Z AUTO 01012KT 9SM SCT010 OVC016 M01/M02 A3009 RMK AO2 T10061022
  • 272053Z AUTO 01011KT 3SM BR FEW008 OVC012 M01/M02 A3010 RMK AO2 SLP201 I1000 I3000 T10061022 56023
  • 272043Z AUTO 36010KT 4SM BR BKN010 OVC016 M01/M02 A3010 RMK AO2 CIG 006V012 T10061022
  • 272015Z AUTO 01010KT 4SM BR SCT008 OVC015 M01/M02 A3011 RMK AO2 T10061022
  • 271953Z AUTO 03012KT 10SM BKN014 OVC019 M01/M03 A3011 RMK AO2 SLP204 T10061028

TAF KINK
Valid from the 27 at 18:00 until the 28 at 18:00 UTC


271747Z 2718/2818 03013KT P6SM OVC015
TEMPO 2718/2722 5SM -FZDZ BR BKN007
FM272200 36010KT 5SM -FZRAPL BR OVC015
TEMPO 2802/2804 2SM -FZRAPL BR BKN007
FM280400 31006KT 5SM -SN BR OVC010
KZFW FIR / North America



MET'MAP, your aeronautical weather chart ! - Copyright ORBIFLY December 2007 - Disclaimer

ORBIFLY MET'MAP TEAM :

Programming & Development : Alexandra Zaïnal
Concept & original design : Baudouin d'Aumeries
Assistance for programming : Marc-Olivier Méhu
Technical & hardware support : Manuel Goepfert

Contact : metmap@orbifly.com




SOURCES & CREDITS :

   NOAA       Earth
Advisory